Terminal Aerodrome Forecast
Issued by NWS El Paso, TX

Home | Current Version | Previous Version | Text Only | Print | Product List | Glossary On
Versions: 1 2 3 4 5 6 7 8 9 10 11 12 13
000
FTUS44 KEPZ 222320
TAFELP
TAF
KELP 222320Z 2300/2324 27010KT P6SM FEW150 SCT250
     FM230800 18006KT P6SM FEW200
     FM231500 23013G20KT P6SM SCT060
     FM231700 23025G35KT P6SM SCT060 BKN120 BKN200
     FM232300 28030G40KT 4SM BLDU SCT060 BKN120 BKN180=

USA.gov is the U.S. government's official web portal to all federal, state and local government web resources and services.